createdAt,value
2022-12-19T00:02:44.874Z,-2.45
2022-12-19T00:05:50.494Z,-2.58
2022-12-19T00:08:56.790Z,-2.53
2022-12-19T00:11:59.603Z,-2.51
2022-12-19T00:15:03.602Z,-2.36
2022-12-19T00:18:07.809Z,-2.35
2022-12-19T00:21:14.045Z,-2.44
2022-12-19T00:24:20.693Z,-2.40
2022-12-19T00:27:24.226Z,-2.41
2022-12-19T00:30:28.377Z,-2.45
2022-12-19T00:36:54.618Z,-2.19
2022-12-19T00:39:58.618Z,-2.22
2022-12-19T00:43:02.598Z,-2.19
2022-12-19T00:46:07.639Z,-1.96
2022-12-19T00:49:11.936Z,-1.92
2022-12-19T00:52:16.059Z,-2.19
2022-12-19T00:55:20.191Z,-2.20
2022-12-19T00:58:23.220Z,-2.28
2022-12-19T01:01:29.383Z,-2.26
2022-12-19T01:04:38.263Z,-2.05
2022-12-19T01:07:45.358Z,-2.02
2022-12-19T01:10:49.434Z,-2.19
2022-12-19T01:13:52.402Z,-2.12
2022-12-19T01:16:55.184Z,-2.27
2022-12-19T01:19:59.154Z,-2.30
2022-12-19T01:23:03.322Z,-2.23
2022-12-19T01:26:07.650Z,-2.11
2022-12-19T01:29:10.643Z,-2.16
2022-12-19T01:32:14.730Z,-1.99
2022-12-19T01:35:22.031Z,-1.99
2022-12-19T01:38:27.481Z,-2.02
2022-12-19T01:41:31.387Z,-2.03
2022-12-19T01:44:36.524Z,-2.10
2022-12-19T01:47:46.539Z,-1.91
2022-12-19T01:54:26.478Z,-2.09
2022-12-19T02:00:53.533Z,-1.94
2022-12-19T02:03:58.325Z,-2.02
2022-12-19T02:07:10.885Z,-1.95
2022-12-19T02:10:20.801Z,-1.99
2022-12-19T02:13:26.264Z,-1.92
2022-12-19T02:16:48.899Z,-1.85
2022-12-19T02:20:20.860Z,-1.85
2022-12-19T02:23:55.690Z,-1.89
2022-12-19T02:27:13.482Z,-1.89
2022-12-19T02:30:18.699Z,-1.73
2022-12-19T02:33:43.017Z,-1.87
2022-12-19T02:36:54.069Z,-1.72
2022-12-19T02:40:03.546Z,-1.94
2022-12-19T02:43:09.422Z,-2.04
2022-12-19T02:46:13.078Z,-1.82
2022-12-19T02:49:21.913Z,-1.76
2022-12-19T02:52:49.273Z,-1.83
2022-12-19T02:56:10.435Z,-1.73
2022-12-19T02:59:36.580Z,-1.72
2022-12-19T03:03:00.666Z,-1.88
2022-12-19T03:06:16.574Z,-1.75
2022-12-19T03:09:28.721Z,-1.97
2022-12-19T03:12:35.435Z,-1.81
2022-12-19T03:15:40.460Z,-1.92
2022-12-19T03:18:45.390Z,-1.90
2022-12-19T03:21:52.799Z,-1.88
2022-12-19T03:24:56.804Z,-1.90
2022-12-19T03:28:04.801Z,-1.94
2022-12-19T03:31:11.585Z,-1.94
2022-12-19T03:34:20.924Z,-1.97
2022-12-19T03:37:29.354Z,-1.75
2022-12-19T03:40:37.023Z,-1.80
2022-12-19T03:43:40.162Z,-1.86
2022-12-19T03:46:50.762Z,-1.89
2022-12-19T03:49:53.826Z,-1.99
2022-12-19T03:56:36.443Z,-1.93
2022-12-19T03:59:44.064Z,-1.92
2022-12-19T04:02:52.072Z,-2.02
2022-12-19T04:05:56.129Z,-1.87
2022-12-19T04:09:03.422Z,-1.98
2022-12-19T04:12:09.736Z,-2.01
2022-12-19T04:15:14.272Z,-2.04
2022-12-19T04:18:21.099Z,-2.16
2022-12-19T04:21:29.146Z,-2.06
2022-12-19T04:24:38.486Z,-2.05
2022-12-19T04:27:46.238Z,-2.14
2022-12-19T04:30:52.017Z,-1.89
2022-12-19T04:33:56.136Z,-2.09
2022-12-19T04:36:59.134Z,-2.20
2022-12-19T04:40:04.570Z,-1.99
2022-12-19T04:43:08.391Z,-2.03
2022-12-19T04:46:12.476Z,-1.95
2022-12-19T04:49:16.889Z,-2.19
2022-12-19T04:52:19.837Z,-2.10
2022-12-19T04:55:25.189Z,-1.99
2022-12-19T04:58:28.396Z,-2.08
2022-12-19T05:01:32.520Z,-1.97
2022-12-19T05:04:36.705Z,-2.10
2022-12-19T05:07:40.532Z,-2.03
2022-12-19T05:10:45.896Z,-2.08
2022-12-19T05:13:50.146Z,-2.17
2022-12-19T05:17:01.114Z,-1.96
2022-12-19T05:20:06.988Z,-2.09
2022-12-19T05:23:16.181Z,-2.13
2022-12-19T05:26:22.455Z,-2.11
2022-12-19T05:29:25.325Z,-2.06
2022-12-19T05:32:33.418Z,-2.02
2022-12-19T05:35:37.925Z,-2.24
2022-12-19T05:38:41.012Z,-2.20
2022-12-19T05:41:48.999Z,-2.24
2022-12-19T05:44:51.961Z,-2.15
2022-12-19T05:48:01.075Z,-1.87
2022-12-19T05:51:05.923Z,-1.84
2022-12-19T05:54:08.697Z,-2.02
2022-12-19T05:57:14.157Z,-1.88
2022-12-19T06:00:17.401Z,-1.96
2022-12-19T06:03:21.529Z,-2.16
2022-12-19T06:06:27.298Z,-1.91
2022-12-19T06:09:30.240Z,-1.70
2022-12-19T06:12:36.281Z,-1.89
2022-12-19T06:15:40.241Z,-1.71
2022-12-19T06:18:45.579Z,-1.67
2022-12-19T06:21:49.876Z,-1.60
2022-12-19T06:24:52.863Z,-1.60
2022-12-19T06:27:58.211Z,-1.54
2022-12-19T06:31:02.755Z,-1.51
2022-12-19T06:34:06.705Z,-1.55
2022-12-19T06:37:10.697Z,-1.54
2022-12-19T06:40:33.861Z,-1.45
2022-12-19T06:43:38.516Z,-1.47
2022-12-19T06:50:04.558Z,-1.45
2022-12-19T06:53:09.025Z,-1.39
2022-12-19T06:56:14.535Z,-1.30
2022-12-19T06:59:20.052Z,-1.25
2022-12-19T07:02:28.393Z,-1.25
2022-12-19T07:05:31.495Z,-1.35
2022-12-19T07:11:58.511Z,-1.27
2022-12-19T07:15:04.090Z,-1.13
2022-12-19T07:18:10.357Z,-1.00
2022-12-19T07:21:13.157Z,-1.03
2022-12-19T07:24:16.382Z,-1.12
2022-12-19T07:27:19.861Z,-1.11
2022-12-19T07:30:25.232Z,-1.05
2022-12-19T07:33:28.729Z,-0.94
2022-12-19T07:36:31.562Z,-0.95
2022-12-19T07:39:34.386Z,-0.97
2022-12-19T07:42:36.968Z,-0.88
2022-12-19T07:45:43.092Z,-0.95
2022-12-19T07:48:46.157Z,-0.82
2022-12-19T07:51:48.958Z,-0.64
2022-12-19T07:54:51.709Z,-0.54
2022-12-19T07:57:55.426Z,-0.64
2022-12-19T08:01:02.026Z,-0.78
2022-12-19T08:04:05.682Z,-0.73
2022-12-19T08:07:08.776Z,-0.51
2022-12-19T08:10:14.510Z,-0.53
2022-12-19T08:13:17.229Z,-0.55
2022-12-19T08:16:21.454Z,-0.48
2022-12-19T08:19:27.454Z,-0.41
2022-12-19T08:22:31.247Z,-0.42
2022-12-19T08:25:35.333Z,-0.32
2022-12-19T08:28:39.362Z,-0.31
2022-12-19T08:31:43.651Z,-0.25
2022-12-19T08:34:48.018Z,-0.24
2022-12-19T08:37:51.487Z,-0.18
2022-12-19T08:40:56.311Z,-0.17
2022-12-19T08:43:59.274Z,-0.11
2022-12-19T08:47:04.489Z,-0.15
2022-12-19T08:50:08.081Z,0.03
2022-12-19T08:53:10.815Z,0.06
2022-12-19T08:56:15.552Z,-0.13
2022-12-19T08:59:30.368Z,-0.01
2022-12-19T09:02:35.840Z,0.02
2022-12-19T09:06:01.367Z,-0.04
2022-12-19T09:09:03.966Z,0.20
2022-12-19T09:15:31.528Z,-0.01
2022-12-19T09:18:36.039Z,0.16
2022-12-19T09:21:40.220Z,0.22
2022-12-19T09:24:42.919Z,0.28
2022-12-19T09:28:25.245Z,0.53
2022-12-19T09:31:13.747Z,0.57
2022-12-19T09:34:18.275Z,0.34
2022-12-19T09:37:26.671Z,0.52
2022-12-19T09:40:33.930Z,0.54
2022-12-19T09:43:48.706Z,0.65
2022-12-19T09:46:53.728Z,0.76
2022-12-19T09:50:01.004Z,0.63
2022-12-19T09:53:10.224Z,0.92
2022-12-19T09:56:18.181Z,1.00
2022-12-19T09:59:37.115Z,0.93
2022-12-19T10:02:49.605Z,1.04
2022-12-19T10:07:10.622Z,1.08
2022-12-19T10:11:59.370Z,1.39
2022-12-19T10:13:12.771Z,1.38
2022-12-19T10:16:25.767Z,1.45
2022-12-19T10:23:19.912Z,1.55
2022-12-19T10:26:31.470Z,1.67
2022-12-19T10:29:56.884Z,1.81
2022-12-19T10:33:07.145Z,1.83
2022-12-19T10:36:16.775Z,1.77
2022-12-19T10:39:31.509Z,1.95
2022-12-19T10:42:45.326Z,1.98
2022-12-19T10:45:52.550Z,2.08
2022-12-19T10:48:55.459Z,2.14
2022-12-19T10:52:00.755Z,2.18
2022-12-19T10:55:23.628Z,2.21
2022-12-19T10:58:29.191Z,2.28
2022-12-19T11:01:36.800Z,2.28
2022-12-19T11:04:42.271Z,2.21
2022-12-19T11:08:02.205Z,2.36
2022-12-19T11:12:51.140Z,2.40
2022-12-19T11:18:17.135Z,2.33
2022-12-19T11:27:39.971Z,2.30
2022-12-19T11:29:42.762Z,2.28
2022-12-19T11:29:54.953Z,2.34
2022-12-19T11:30:36.287Z,2.25
2022-12-19T11:35:25.256Z,2.33
2022-12-19T11:38:46.949Z,2.33
2022-12-19T11:42:00.108Z,2.40
2022-12-19T11:45:13.576Z,2.49
2022-12-19T11:48:23.869Z,2.39
2022-12-19T11:51:34.467Z,2.36
2022-12-19T11:54:44.780Z,2.43
2022-12-19T11:57:49.809Z,2.40
2022-12-19T12:01:03.036Z,2.47
2022-12-19T12:04:40.793Z,2.38
2022-12-19T12:09:33.319Z,2.35
2022-12-19T12:18:26.342Z,2.30
2022-12-19T12:25:24.875Z,2.46
2022-12-19T12:31:16.752Z,2.47
2022-12-19T12:31:26.378Z,2.40
2022-12-19T12:31:45.495Z,2.33
2022-12-19T12:31:50.993Z,2.36
2022-12-19T12:35:42.375Z,2.38
2022-12-19T12:41:09.256Z,2.58
2022-12-19T12:44:13.456Z,2.66
2022-12-19T12:47:21.880Z,2.63
2022-12-19T12:50:27.888Z,2.35
2022-12-19T12:53:36.293Z,2.42
2022-12-19T12:56:41.870Z,2.55
2022-12-19T12:59:46.964Z,2.42
2022-12-19T13:02:56.479Z,2.62
2022-12-19T13:06:08.354Z,2.45
2022-12-19T13:09:25.690Z,2.69
2022-12-19T13:12:47.917Z,2.42
2022-12-19T13:15:50.951Z,2.35
2022-12-19T13:19:21.069Z,2.50
2022-12-19T13:22:40.688Z,2.50
2022-12-19T13:25:54.965Z,2.56
2022-12-19T13:29:34.301Z,2.72
2022-12-19T13:33:11.518Z,2.64
2022-12-19T13:40:01.046Z,2.69
2022-12-19T13:40:20.976Z,2.63
2022-12-19T13:43:49.454Z,2.74
2022-12-19T13:46:52.965Z,2.58
2022-12-19T13:49:58.499Z,2.75
2022-12-19T13:53:01.463Z,2.72
2022-12-19T13:56:07.697Z,2.82
2022-12-19T13:59:12.091Z,2.66
2022-12-19T14:02:20.481Z,2.78
2022-12-19T14:05:32.257Z,2.87
2022-12-19T14:09:58.665Z,2.77
2022-12-19T14:13:52.961Z,2.82
2022-12-19T14:19:26.035Z,2.82
2022-12-19T14:22:28.815Z,2.76
2022-12-19T14:28:21.682Z,2.91
2022-12-19T14:29:05.602Z,2.88
2022-12-19T14:33:39.211Z,2.89
2022-12-19T14:36:12.225Z,2.96
2022-12-19T14:39:23.498Z,3.05
2022-12-19T14:43:56.711Z,3.18
2022-12-19T14:53:34.138Z,3.11
2022-12-19T14:54:10.511Z,3.02
2022-12-19T14:54:44.283Z,3.02
2022-12-19T14:59:59.775Z,3.19
2022-12-19T15:07:07.693Z,3.08
2022-12-19T15:11:09.297Z,3.05
2022-12-19T15:14:51.619Z,3.10
2022-12-19T15:17:02.256Z,3.16
2022-12-19T15:20:06.840Z,3.13
2022-12-19T15:23:14.118Z,3.22
2022-12-19T15:26:28.371Z,3.34
2022-12-19T15:29:34.201Z,3.24
2022-12-19T15:32:38.119Z,3.42
2022-12-19T15:35:41.795Z,3.36
2022-12-19T15:38:46.692Z,3.28
2022-12-19T15:45:17.902Z,3.44
2022-12-19T15:48:20.882Z,3.54
2022-12-19T15:51:25.093Z,3.56
2022-12-19T15:57:55.667Z,3.63
2022-12-19T16:01:03.683Z,3.63
2022-12-19T16:04:15.012Z,3.58
2022-12-19T16:07:19.554Z,3.58
2022-12-19T16:10:24.112Z,3.59
2022-12-19T16:13:29.978Z,3.83
2022-12-19T16:16:32.836Z,3.98
2022-12-19T16:19:39.145Z,3.87
2022-12-19T16:22:43.803Z,3.80
2022-12-19T16:25:50.600Z,3.87
2022-12-19T16:28:53.693Z,3.77
2022-12-19T16:31:56.598Z,3.90
2022-12-19T16:35:00.571Z,3.88
2022-12-19T16:38:03.286Z,3.83
2022-12-19T16:41:10.412Z,3.94
2022-12-19T16:44:19.467Z,4.07
2022-12-19T16:47:22.539Z,4.06
2022-12-19T16:50:27.124Z,4.11
2022-12-19T16:53:30.395Z,4.12
2022-12-19T16:56:36.658Z,4.20
2022-12-19T16:59:42.287Z,4.24
2022-12-19T17:02:49.618Z,4.13
2022-12-19T17:05:52.799Z,4.39
2022-12-19T17:08:55.518Z,4.25
2022-12-19T17:12:01.760Z,4.28
2022-12-19T17:15:07.889Z,4.21
2022-12-19T17:18:15.229Z,4.39
2022-12-19T17:21:20.151Z,4.42
2022-12-19T17:24:22.883Z,4.39
2022-12-19T17:27:26.980Z,4.46
2022-12-19T17:30:29.771Z,4.36
2022-12-19T17:33:37.930Z,4.52
2022-12-19T17:36:40.730Z,4.60
2022-12-19T17:39:44.935Z,4.47
2022-12-19T17:42:49.639Z,4.63
2022-12-19T17:45:53.715Z,4.56
2022-12-19T17:48:56.567Z,4.46
2022-12-19T17:52:00.894Z,4.45
2022-12-19T17:55:14.466Z,4.52
2022-12-19T17:58:18.677Z,4.63
2022-12-19T18:01:25.154Z,4.72
2022-12-19T18:04:31.016Z,4.72
2022-12-19T18:07:34.328Z,4.73
2022-12-19T18:10:37.270Z,4.65
2022-12-19T18:13:41.506Z,4.81
2022-12-19T18:16:45.250Z,4.80
2022-12-19T18:19:48.028Z,4.66
2022-12-19T18:22:50.755Z,4.71
2022-12-19T18:26:01.191Z,4.83
2022-12-19T18:29:06.118Z,4.80
2022-12-19T18:32:19.267Z,4.77
2022-12-19T18:35:23.962Z,4.83
2022-12-19T18:38:27.275Z,4.95
2022-12-19T18:44:53.447Z,4.94
2022-12-19T18:51:24.219Z,4.92
2022-12-19T18:54:28.634Z,5.04
2022-12-19T18:57:32.576Z,4.92
2022-12-19T19:00:39.727Z,4.97
2022-12-19T19:03:46.149Z,5.10
2022-12-19T19:06:52.177Z,5.16
2022-12-19T19:09:55.651Z,5.07
2022-12-19T19:13:06.620Z,5.08
2022-12-19T19:16:19.642Z,5.31
2022-12-19T19:19:22.602Z,5.09
2022-12-19T19:22:26.878Z,5.11
2022-12-19T19:25:29.796Z,5.25
2022-12-19T19:28:32.544Z,5.09
2022-12-19T19:31:40.685Z,5.42
2022-12-19T19:34:44.448Z,5.22
2022-12-19T19:37:50.194Z,5.15
2022-12-19T19:40:52.929Z,5.15
2022-12-19T19:43:56.968Z,5.18
2022-12-19T19:47:01.126Z,5.08
2022-12-19T19:50:06.055Z,5.13
2022-12-19T19:53:08.843Z,5.16
2022-12-19T19:56:13.263Z,5.13
2022-12-19T19:59:19.632Z,5.19
2022-12-19T20:02:25.709Z,5.14
2022-12-19T20:05:28.701Z,5.18
2022-12-19T20:08:39.226Z,5.13
2022-12-19T20:11:43.267Z,5.14
2022-12-19T20:14:47.281Z,5.34
2022-12-19T20:17:52.837Z,5.23
2022-12-19T20:20:55.618Z,5.21
2022-12-19T20:23:59.653Z,5.29
2022-12-19T20:27:03.227Z,5.15
2022-12-19T20:30:09.075Z,5.06
2022-12-19T20:33:13.447Z,5.16
2022-12-19T20:36:17.665Z,5.18
2022-12-19T20:39:22.277Z,5.14
2022-12-19T20:42:25.784Z,5.04
2022-12-19T20:45:29.733Z,5.12
2022-12-19T20:48:35.263Z,5.20
2022-12-19T20:51:39.407Z,5.20
2022-12-19T20:54:44.270Z,4.97
2022-12-19T20:57:47.283Z,5.04
2022-12-19T21:00:50.081Z,5.11
2022-12-19T21:03:54.490Z,4.91
2022-12-19T21:06:58.858Z,4.99
2022-12-19T21:10:06.293Z,4.86
2022-12-19T21:13:08.988Z,5.04
2022-12-19T21:22:58.897Z,4.85
2022-12-19T21:26:05.547Z,4.98
2022-12-19T21:29:08.278Z,5.02
2022-12-19T21:32:18.669Z,4.87
2022-12-19T21:35:24.202Z,4.71
2022-12-19T21:38:27.192Z,4.83
2022-12-19T21:41:31.213Z,4.73
2022-12-19T21:44:33.933Z,4.70
2022-12-19T21:47:40.608Z,4.83
2022-12-19T21:50:46.209Z,4.68
2022-12-19T21:53:49.413Z,4.76
2022-12-19T21:56:53.434Z,4.88
2022-12-19T21:59:56.189Z,4.67
2022-12-19T22:03:13.895Z,4.74
2022-12-19T22:06:27.615Z,4.71
2022-12-19T22:09:31.021Z,4.68
2022-12-19T22:12:35.428Z,4.73
2022-12-19T22:15:39.580Z,4.72
2022-12-19T22:18:44.423Z,4.72
2022-12-19T22:21:50.579Z,4.87
2022-12-19T22:24:53.525Z,4.83
2022-12-19T22:27:57.483Z,4.80
2022-12-19T22:31:01.825Z,4.98
2022-12-19T22:34:07.083Z,4.95
2022-12-19T22:40:34.334Z,5.20
2022-12-19T22:43:37.659Z,5.11
2022-12-19T22:46:40.756Z,5.24
2022-12-19T22:49:43.478Z,5.45
2022-12-19T22:52:47.875Z,5.37
2022-12-19T22:55:50.641Z,5.50
2022-12-19T22:58:57.092Z,5.61
2022-12-19T23:02:01.530Z,5.55
2022-12-19T23:05:04.713Z,5.47
2022-12-19T23:08:10.610Z,5.51
2022-12-19T23:11:18.237Z,5.51
2022-12-19T23:14:21.725Z,5.44
2022-12-19T23:17:24.691Z,5.46
2022-12-19T23:20:27.490Z,5.41
2022-12-19T23:23:32.834Z,5.52
2022-12-19T23:26:39.720Z,5.49
2022-12-19T23:29:42.747Z,5.46
2022-12-19T23:32:50.886Z,5.57
2022-12-19T23:35:54.000Z,5.51
2022-12-19T23:39:00.250Z,5.54
2022-12-19T23:45:24.416Z,5.61
2022-12-19T23:48:30.982Z,5.62
2022-12-19T23:51:33.809Z,5.78
2022-12-19T23:54:39.496Z,5.68
2022-12-19T23:57:43.642Z,5.68
